Time;durP1;ratioP1;P1;durP2;ratioP2;P2;SDS_P1;SDS_P2;PMS_P1;PMS_P2;Temp;Humidity;BMP_temperature;BMP_pressure;BME280_temperature;BME280_humidity;BME280_pressure;Samples;Min_cycle;Max_cycle;Signal;HPM_P1;HPM_P2
2023/05/01 00:02:21;;;;;;;3.20;2.63;;;;;;;;;;5093052;28;20101;-65
2023/05/01 00:04:48;;;;;;;3.10;2.75;;;;;;;;;;5093627;28;20044;-65
2023/05/01 00:07:15;;;;;;;4.15;2.80;;;;;;;;;;5092843;28;20409;-67
2023/05/01 00:09:41;;;;;;;2.95;2.58;;;;;;;;;;5093673;28;20044;-67
2023/05/01 00:12:09;;;;;;;3.75;2.90;;;;;;;;;;5092918;28;20059;-66
2023/05/01 00:14:35;;;;;;;3.72;3.08;;;;;;;;;;5093361;28;20103;-66
2023/05/01 00:17:03;;;;;;;3.00;2.70;;;;;;;;;;5093115;28;20048;-67
2023/05/01 00:19:31;;;;;;;3.70;3.05;;;;;;;;;;5092948;28;20044;-66
2023/05/01 00:21:58;;;;;;;3.55;2.88;;;;;;;;;;5092976;28;20151;-65
2023/05/01 00:24:24;;;;;;;4.25;3.00;;;;;;;;;;5092879;28;20055;-66
2023/05/01 00:26:52;;;;;;;2.75;2.55;;;;;;;;;;5093029;28;20046;-67
2023/05/01 00:29:18;;;;;;;4.13;2.83;;;;;;;;;;5093051;28;20483;-66
2023/05/01 00:31:47;;;;;;;4.57;3.20;;;;;;;;;;5093209;28;20048;-66
2023/05/01 00:34:15;;;;;;;3.65;2.67;;;;;;;;;;5092585;28;20048;-66
2023/05/01 00:36:45;;;;;;;3.60;2.78;;;;;;;;;;5092969;28;20055;-65
2023/05/01 00:39:11;;;;;;;3.50;3.05;;;;;;;;;;5092867;28;20079;-65
2023/05/01 00:41:40;;;;;;;4.45;3.05;;;;;;;;;;5092808;28;20497;-65
2023/05/01 00:44:06;;;;;;;3.65;2.92;;;;;;;;;;5092486;28;20056;-64
2023/05/01 00:46:34;;;;;;;3.25;2.70;;;;;;;;;;5092962;28;20044;-65
2023/05/01 00:49:02;;;;;;;3.83;2.80;;;;;;;;;;5092181;28;20044;-65
2023/05/01 00:51:31;;;;;;;5.30;3.20;;;;;;;;;;5093006;28;20050;-65
2023/05/01 00:54:02;;;;;;;3.75;3.20;;;;;;;;;;5092936;28;20097;-64
2023/05/01 00:56:31;;;;;;;4.25;3.58;;;;;;;;;;5092916;28;20497;-67
2023/05/01 00:59:05;;;;;;;5.95;3.10;;;;;;;;;;5092134;28;20329;-67
2023/05/01 01:01:33;;;;;;;3.47;3.17;;;;;;;;;;5092544;28;20044;-66
2023/05/01 01:04:00;;;;;;;3.50;2.95;;;;;;;;;;5092944;28;20104;-67
2023/05/01 01:06:36;;;;;;;4.28;3.17;;;;;;;;;;5092692;28;20048;-65
2023/05/01 01:09:16;;;;;;;5.95;3.22;;;;;;;;;;5092250;28;20055;-66
2023/05/01 01:11:51;;;;;;;3.42;3.05;;;;;;;;;;5092851;28;20460;-65
2023/05/01 01:14:25;;;;;;;5.10;3.33;;;;;;;;;;5092237;28;20047;-66
2023/05/01 01:16:58;;;;;;;4.70;3.28;;;;;;;;;;5091244;28;20051;-65
2023/05/01 01:20:09;;;;;;;5.13;3.42;;;;;;;;;;5092281;28;20047;-65
2023/05/01 01:22:42;;;;;;;4.38;3.50;;;;;;;;;;5079758;28;20044;-65
2023/05/01 01:25:42;;;;;;;4.20;3.80;;;;;;;;;;5091080;28;20043;-66
2023/05/01 01:28:24;;;;;;;5.75;3.70;;;;;;;;;;5091589;28;20052;-66
2023/05/01 01:31:10;;;;;;;4.40;4.00;;;;;;;;;;5091672;28;20040;-67
2023/05/01 01:34:03;;;;;;;3.22;2.88;;;;;;;;;;5091330;28;20094;-67
2023/05/01 01:36:47;;;;;;;3.63;2.85;;;;;;;;;;5091342;28;20058;-66
2023/05/01 01:39:23;;;;;;;4.40;3.50;;;;;;;;;;5091518;28;20055;-67
2023/05/01 01:41:52;;;;;;;4.07;3.33;;;;;;;;;;5091443;28;20408;-67
2023/05/01 01:44:27;;;;;;;3.95;3.28;;;;;;;;;;5090931;28;20054;-65
2023/05/01 01:46:54;;;;;;;4.00;3.50;;;;;;;;;;5090577;28;20054;-67
2023/05/01 01:49:26;;;;;;;5.70;3.38;;;;;;;;;;5091383;28;20062;-67
2023/05/01 01:51:55;;;;;;;4.85;3.70;;;;;;;;;;5090801;28;20044;-65
2023/05/01 01:54:29;;;;;;;4.03;3.53;;;;;;;;;;5090971;28;20048;-66
2023/05/01 01:57:00;;;;;;;3.80;3.42;;;;;;;;;;5091192;28;20052;-67
2023/05/01 01:59:31;;;;;;;3.47;3.00;;;;;;;;;;5091516;28;20047;-65
2023/05/01 02:01:59;;;;;;;4.20;3.28;;;;;;;;;;5091031;28;20448;-66
2023/05/01 02:04:28;;;;;;;4.40;3.28;;;;;;;;;;5090866;28;20549;-66
2023/05/01 02:06:57;;;;;;;5.32;3.45;;;;;;;;;;5090121;28;20123;-67
2023/05/01 02:09:25;;;;;;;4.53;3.30;;;;;;;;;;5091185;28;20043;-66
2023/05/01 02:11:53;;;;;;;5.00;3.58;;;;;;;;;;5090673;28;20398;-66
2023/05/01 02:14:22;;;;;;;4.57;3.20;;;;;;;;;;5091038;28;20505;-65
2023/05/01 02:16:50;;;;;;;4.15;3.30;;;;;;;;;;5089974;28;20044;-66
2023/05/01 02:19:20;;;;;;;7.60;3.47;;;;;;;;;;5090612;28;20044;-66
2023/05/01 02:21:50;;;;;;;3.97;3.30;;;;;;;;;;5090526;28;20044;-67
2023/05/01 02:24:18;;;;;;;6.15;3.80;;;;;;;;;;5094848;28;20051;-67
2023/05/01 02:26:50;;;;;;;4.82;3.03;;;;;;;;;;5097024;28;20040;-67
2023/05/01 02:29:16;;;;;;;3.23;2.93;;;;;;;;;;5097071;28;20519;-66
2023/05/01 02:31:43;;;;;;;3.10;2.80;;;;;;;;;;5096886;28;20048;-66
2023/05/01 02:34:10;;;;;;;5.38;3.17;;;;;;;;;;5097464;28;20048;-66
2023/05/01 02:36:36;;;;;;;4.57;3.10;;;;;;;;;;5097039;28;20043;-66
2023/05/01 02:39:05;;;;;;;4.90;3.13;;;;;;;;;;5096925;28;20047;-66
2023/05/01 02:41:35;;;;;;;3.88;2.88;;;;;;;;;;5097453;28;20091;-67
2023/05/01 02:44:04;;;;;;;6.10;3.03;;;;;;;;;;5096558;28;20051;-66
2023/05/01 02:46:33;;;;;;;3.88;2.88;;;;;;;;;;5096840;28;20127;-67
2023/05/01 02:49:01;;;;;;;3.85;2.80;;;;;;;;;;5096426;28;20040;-67
2023/05/01 02:51:30;;;;;;;5.28;3.05;;;;;;;;;;5097323;28;20048;-66
2023/05/01 02:53:57;;;;;;;3.03;2.60;;;;;;;;;;5097054;28;20356;-66
2023/05/01 02:56:26;;;;;;;5.55;3.17;;;;;;;;;;5096900;28;20085;-66
2023/05/01 02:58:53;;;;;;;4.28;3.03;;;;;;;;;;5096147;28;20051;-67
2023/05/01 03:01:20;;;;;;;3.35;2.80;;;;;;;;;;5097014;28;20047;-66
2023/05/01 03:03:55;;;;;;;6.43;2.72;;;;;;;;;;5096425;28;20044;-66
2023/05/01 03:06:31;;;;;;;3.67;2.83;;;;;;;;;;5096763;28;20050;-66
2023/05/01 03:08:57;;;;;;;3.47;2.80;;;;;;;;;;5095961;28;20048;-66
2023/05/01 03:11:24;;;;;;;4.07;2.90;;;;;;;;;;5096694;28;20040;-65
2023/05/01 03:13:55;;;;;;;3.80;2.88;;;;;;;;;;5096486;28;20459;-67
2023/05/01 03:16:21;;;;;;;7.15;3.50;;;;;;;;;;5096591;28;20074;-67
2023/05/01 03:18:48;;;;;;;4.03;2.83;;;;;;;;;;5096192;28;20040;-66
2023/05/01 03:21:14;;;;;;;3.30;3.00;;;;;;;;;;5096413;28;20448;-66
2023/05/01 03:23:41;;;;;;;3.13;2.80;;;;;;;;;;5095852;28;20459;-66
2023/05/01 03:26:08;;;;;;;2.97;2.65;;;;;;;;;;5095957;28;20052;-66
2023/05/01 03:28:39;;;;;;;2.70;2.47;;;;;;;;;;5095737;28;20086;-66
2023/05/01 03:31:08;;;;;;;4.00;2.60;;;;;;;;;;5096277;28;20044;-66
2023/05/01 03:33:34;;;;;;;3.15;2.85;;;;;;;;;;5095956;28;20051;-66
2023/05/01 03:36:02;;;;;;;4.00;2.65;;;;;;;;;;5092355;28;20169;-66
2023/05/01 03:38:29;;;;;;;4.03;2.92;;;;;;;;;;5092058;28;20095;-67
2023/05/01 03:40:56;;;;;;;3.33;3.03;;;;;;;;;;5093367;28;20044;-66
2023/05/01 03:43:26;;;;;;;4.55;2.92;;;;;;;;;;5093037;28;20047;-66
2023/05/01 03:45:52;;;;;;;4.32;2.78;;;;;;;;;;5092794;28;20135;-68
2023/05/01 03:48:21;;;;;;;2.67;2.40;;;;;;;;;;5093520;28;20249;-66
2023/05/01 03:50:47;;;;;;;2.92;2.60;;;;;;;;;;5093040;28;20048;-66
2023/05/01 03:53:15;;;;;;;5.00;3.30;;;;;;;;;;5093446;28;20108;-66
2023/05/01 03:55:41;;;;;;;3.65;2.85;;;;;;;;;;5092873;28;20079;-67
2023/05/01 03:58:09;;;;;;;3.22;2.67;;;;;;;;;;5093576;28;20048;-67
2023/05/01 04:00:36;;;;;;;3.58;2.80;;;;;;;;;;5092743;28;20166;-66
2023/05/01 04:03:03;;;;;;;4.00;2.60;;;;;;;;;;5092561;28;20044;-66
2023/05/01 04:05:31;;;;;;;3.28;2.53;;;;;;;;;;5092173;28;20058;-67
2023/05/01 04:07:57;;;;;;;4.45;2.88;;;;;;;;;;5092481;28;20052;-66
2023/05/01 04:10:30;;;;;;;3.67;2.95;;;;;;;;;;5092773;28;20046;-65
2023/05/01 04:12:56;;;;;;;2.97;2.67;;;;;;;;;;5092793;28;20063;-66
2023/05/01 04:15:23;;;;;;;3.08;2.75;;;;;;;;;;5092452;28;20055;-66
2023/05/01 04:17:54;;;;;;;4.18;2.95;;;;;;;;;;5091998;28;20425;-67
2023/05/01 04:20:21;;;;;;;3.13;2.75;;;;;;;;;;5091834;28;20143;-67
2023/05/01 04:22:49;;;;;;;3.78;2.75;;;;;;;;;;5092335;28;20048;-67
2023/05/01 04:25:15;;;;;;;3.38;2.63;;;;;;;;;;5092033;28;20044;-67
2023/05/01 04:27:42;;;;;;;3.38;2.88;;;;;;;;;;5092034;28;20044;-65
2023/05/01 04:30:10;;;;;;;2.92;2.45;;;;;;;;;;5091673;28;20040;-67
2023/05/01 04:32:44;;;;;;;5.57;2.63;;;;;;;;;;5092087;28;20127;-66
2023/05/01 04:35:11;;;;;;;8.25;3.10;;;;;;;;;;5091857;28;20051;-66
2023/05/01 04:37:39;;;;;;;2.92;2.60;;;;;;;;;;5092047;28;20101;-65
2023/05/01 04:40:12;;;;;;;2.78;2.30;;;;;;;;;;5092351;28;20048;-68
2023/05/01 04:42:41;;;;;;;3.35;2.60;;;;;;;;;;5092220;28;20136;-67
2023/05/01 04:45:08;;;;;;;7.50;2.80;;;;;;;;;;5090622;28;20048;-66
2023/05/01 04:47:35;;;;;;;4.40;2.63;;;;;;;;;;5091496;28;20052;-66
2023/05/01 04:50:01;;;;;;;3.00;2.28;;;;;;;;;;5092128;28;20052;-67
2023/05/01 04:52:28;;;;;;;3.05;2.67;;;;;;;;;;5092309;28;20413;-66
2023/05/01 04:54:55;;;;;;;9.27;3.90;;;;;;;;;;5105359;22;20508;-73
2023/05/01 04:57:23;;;;;;;3.00;2.72;;;;;;;;;;5090506;28;20083;-72
2023/05/01 04:59:50;;;;;;;3.42;2.70;;;;;;;;;;5091112;28;20050;-72
2023/05/01 05:02:16;;;;;;;3.50;2.60;;;;;;;;;;5091128;28;20050;-71
2023/05/01 05:04:43;;;;;;;3.13;2.50;;;;;;;;;;5091383;28;20052;-72
2023/05/01 05:07:10;;;;;;;3.08;2.40;;;;;;;;;;5090770;28;20137;-72
2023/05/01 05:09:36;;;;;;;4.22;2.50;;;;;;;;;;5091464;28;20048;-72
2023/05/01 05:12:04;;;;;;;4.38;2.65;;;;;;;;;;5090898;28;20110;-71
2023/05/01 05:14:32;;;;;;;3.97;2.83;;;;;;;;;;5090910;28;20496;-71
2023/05/01 05:16:58;;;;;;;3.13;2.83;;;;;;;;;;5091175;28;20048;-72
2023/05/01 05:19:25;;;;;;;2.70;2.50;;;;;;;;;;5091018;28;20048;-74
2023/05/01 05:21:51;;;;;;;3.25;2.75;;;;;;;;;;5090471;28;20051;-72
2023/05/01 05:24:18;;;;;;;3.95;2.67;;;;;;;;;;5090686;28;20505;-71
2023/05/01 05:26:45;;;;;;;5.07;2.70;;;;;;;;;;5090504;28;20136;-72
2023/05/01 05:29:11;;;;;;;4.65;2.42;;;;;;;;;;5090514;28;20127;-72
2023/05/01 05:31:39;;;;;;;3.17;2.50;;;;;;;;;;5090881;28;20044;-72
2023/05/01 05:34:06;;;;;;;2.80;2.50;;;;;;;;;;5090490;28;20490;-71
2023/05/01 05:36:32;;;;;;;5.80;2.67;;;;;;;;;;5090879;28;20439;-72
2023/05/01 05:38:59;;;;;;;2.95;2.45;;;;;;;;;;5090598;28;20050;-72
2023/05/01 05:41:26;;;;;;;2.45;2.25;;;;;;;;;;5090410;28;20131;-71
2023/05/01 05:43:54;;;;;;;2.63;2.20;;;;;;;;;;5090174;28;20066;-72
2023/05/01 05:46:20;;;;;;;4.30;2.75;;;;;;;;;;5090548;28;20405;-71
2023/05/01 05:48:48;;;;;;;3.55;2.25;;;;;;;;;;5089995;28;20048;-71
2023/05/01 05:51:15;;;;;;;2.60;2.17;;;;;;;;;;5090406;28;20063;-71
2023/05/01 05:53:42;;;;;;;3.13;2.10;;;;;;;;;;5090161;28;20052;-71
2023/05/01 05:56:09;;;;;;;4.78;2.40;;;;;;;;;;5090116;28;20047;-71
2023/05/01 05:58:35;;;;;;;3.08;2.20;;;;;;;;;;5089163;28;20048;-71
2023/05/01 06:01:02;;;;;;;2.63;2.03;;;;;;;;;;5090574;28;20052;-72
2023/05/01 06:03:29;;;;;;;3.92;2.38;;;;;;;;;;5090307;28;20374;-70
2023/05/01 06:05:57;;;;;;;4.50;2.35;;;;;;;;;;5090249;28;20416;-70
2023/05/01 06:08:23;;;;;;;3.08;2.15;;;;;;;;;;5089358;28;20051;-71
2023/05/01 06:10:50;;;;;;;2.75;2.20;;;;;;;;;;5090618;28;20460;-71
2023/05/01 06:13:17;;;;;;;2.97;2.05;;;;;;;;;;5089827;28;20047;-71
2023/05/01 06:15:43;;;;;;;2.65;2.25;;;;;;;;;;5090242;28;20079;-71
2023/05/01 06:18:10;;;;;;;4.70;2.40;;;;;;;;;;5089904;28;20050;-72
2023/05/01 06:20:37;;;;;;;3.30;2.30;;;;;;;;;;5090720;28;20044;-71
2023/05/01 06:23:07;;;;;;;2.92;2.03;;;;;;;;;;5090328;28;20046;-72
2023/05/01 06:25:33;;;;;;;2.25;2.05;;;;;;;;;;5090525;28;20050;-72
2023/05/01 06:28:00;;;;;;;3.92;2.15;;;;;;;;;;5090238;28;20051;-72
2023/05/01 06:30:26;;;;;;;2.72;2.20;;;;;;;;;;5089950;28;20044;-72
2023/05/01 06:32:53;;;;;;;2.80;2.03;;;;;;;;;;5089865;28;20048;-71
2023/05/01 06:35:20;;;;;;;2.92;2.42;;;;;;;;;;5089829;28;20052;-71
2023/05/01 06:37:46;;;;;;;3.13;2.10;;;;;;;;;;5089650;28;20048;-71
2023/05/01 06:40:14;;;;;;;3.58;2.25;;;;;;;;;;5089777;28;20093;-71
2023/05/01 06:42:41;;;;;;;2.13;1.95;;;;;;;;;;5090536;28;20560;-71
2023/05/01 06:45:08;;;;;;;2.67;2.22;;;;;;;;;;5089737;28;20052;-71
2023/05/01 06:47:35;;;;;;;2.45;2.13;;;;;;;;;;5090214;28;20044;-71
2023/05/01 06:50:02;;;;;;;2.92;2.17;;;;;;;;;;5089779;28;20055;-71
2023/05/01 06:52:30;;;;;;;3.50;2.28;;;;;;;;;;5090220;28;20052;-71
2023/05/01 06:54:56;;;;;;;2.58;2.03;;;;;;;;;;5089794;28;20499;-71
2023/05/01 06:57:25;;;;;;;3.97;2.45;;;;;;;;;;5090037;28;20135;-72
2023/05/01 06:59:51;;;;;;;2.45;2.00;;;;;;;;;;5090147;28;20040;-72
2023/05/01 07:02:18;;;;;;;2.15;2.00;;;;;;;;;;5089917;28;20066;-72
2023/05/01 07:04:44;;;;;;;2.53;2.05;;;;;;;;;;5089946;28;20047;-72
2023/05/01 07:07:11;;;;;;;3.00;2.10;;;;;;;;;;5090471;28;20044;-73
2023/05/01 07:09:38;;;;;;;2.80;1.98;;;;;;;;;;5090850;28;20484;-72
2023/05/01 07:12:05;;;;;;;2.33;2.13;;;;;;;;;;5093517;28;20080;-71
2023/05/01 07:14:34;;;;;;;2.42;2.22;;;;;;;;;;5093709;28;20076;-71
2023/05/01 07:17:01;;;;;;;3.83;2.15;;;;;;;;;;5093124;28;20086;-71
2023/05/01 07:19:28;;;;;;;2.90;2.30;;;;;;;;;;5093055;28;20405;-71
2023/05/01 07:21:55;;;;;;;2.25;2.03;;;;;;;;;;5092707;28;20048;-71
2023/05/01 07:24:22;;;;;;;2.75;2.33;;;;;;;;;;5093337;28;20573;-69
2023/05/01 07:26:48;;;;;;;2.67;1.98;;;;;;;;;;5092950;28;20044;-70
2023/05/01 07:29:15;;;;;;;2.50;2.00;;;;;;;;;;5093222;28;20040;-70
2023/05/01 07:31:43;;;;;;;2.40;2.00;;;;;;;;;;5093428;28;20477;-70
2023/05/01 07:34:10;;;;;;;3.47;2.00;;;;;;;;;;5092905;28;20048;-70
2023/05/01 07:36:37;;;;;;;3.17;2.28;;;;;;;;;;5092897;28;20072;-70
2023/05/01 07:39:05;;;;;;;2.92;2.40;;;;;;;;;;5092726;28;20493;-70
2023/05/01 07:41:32;;;;;;;3.35;1.80;;;;;;;;;;5092592;28;20466;-70
2023/05/01 07:44:12;;;;;;;;;;;;;;;;;;;;;
2023/05/01 07:46:39;;;;;;;3.63;2.00;;;;;;;;;;5092384;28;20059;-71
2023/05/01 07:49:07;;;;;;;2.38;2.10;;;;;;;;;;5092273;28;20085;-71
2023/05/01 07:51:34;;;;;;;4.13;2.03;;;;;;;;;;5092325;28;20055;-69
2023/05/01 07:54:03;;;;;;;2.53;1.90;;;;;;;;;;5092518;28;20055;-70
2023/05/01 07:56:29;;;;;;;2.05;1.92;;;;;;;;;;5092575;28;20043;-69
2023/05/01 07:58:56;;;;;;;3.80;2.00;;;;;;;;;;5091811;28;20044;-70
2023/05/01 08:01:23;;;;;;;2.58;2.17;;;;;;;;;;5092660;28;20054;-70
2023/05/01 08:03:50;;;;;;;2.70;2.00;;;;;;;;;;5092136;28;20119;-70
2023/05/01 08:06:18;;;;;;;2.95;2.00;;;;;;;;;;5092586;28;20040;-70
2023/05/01 08:08:44;;;;;;;3.25;1.95;;;;;;;;;;5091685;28;20048;-70
2023/05/01 08:11:11;;;;;;;2.78;1.90;;;;;;;;;;5092300;28;20044;-70
2023/05/01 08:13:38;;;;;;;2.08;1.88;;;;;;;;;;5091807;28;20089;-70
2023/05/01 08:16:05;;;;;;;2.00;1.80;;;;;;;;;;5092330;28;20489;-70
2023/05/01 08:18:32;;;;;;;2.30;2.00;;;;;;;;;;5091720;28;20515;-70
2023/05/01 08:20:58;;;;;;;2.30;2.10;;;;;;;;;;5091633;28;20083;-70
2023/05/01 08:23:26;;;;;;;2.78;2.20;;;;;;;;;;5091697;28;20044;-70
2023/05/01 08:25:53;;;;;;;3.42;2.10;;;;;;;;;;5091833;28;20485;-70
2023/05/01 08:28:20;;;;;;;2.17;1.98;;;;;;;;;;5091559;28;20044;-70
2023/05/01 08:30:48;;;;;;;2.28;2.03;;;;;;;;;;5092073;28;20055;-70
2023/05/01 08:33:15;;;;;;;2.90;2.08;;;;;;;;;;5091850;28;20040;-70
2023/05/01 08:35:41;;;;;;;6.03;2.63;;;;;;;;;;5092207;28;20139;-70
2023/05/01 08:38:08;;;;;;;2.17;1.83;;;;;;;;;;5091385;28;20123;-70
2023/05/01 08:40:37;;;;;;;3.00;2.10;;;;;;;;;;5091740;28;20658;-70
2023/05/01 08:43:04;;;;;;;2.83;2.03;;;;;;;;;;5097131;28;20074;-71
2023/05/01 08:45:34;;;;;;;3.95;2.40;;;;;;;;;;5092096;28;20299;-71
2023/05/01 08:48:05;;;;;;;2.20;2.00;;;;;;;;;;5096003;28;20126;-71
2023/05/01 08:50:35;;;;;;;2.75;2.17;;;;;;;;;;5096163;28;20052;-71
2023/05/01 08:53:03;;;;;;;2.97;2.33;;;;;;;;;;5092644;28;20117;-71
2023/05/01 08:55:31;;;;;;;3.58;2.15;;;;;;;;;;5091311;28;20056;-71
2023/05/01 08:57:59;;;;;;;2.53;2.13;;;;;;;;;;5091699;28;20087;-71
2023/05/01 09:00:27;;;;;;;2.08;1.80;;;;;;;;;;5091599;28;20458;-71
2023/05/01 09:02:55;;;;;;;2.38;2.03;;;;;;;;;;5091821;28;20086;-71
2023/05/01 09:05:21;;;;;;;2.65;2.05;;;;;;;;;;5095059;28;20048;-71
2023/05/01 09:07:48;;;;;;;4.30;1.88;;;;;;;;;;5091348;28;20126;-71
2023/05/01 09:10:18;;;;;;;2.17;1.98;;;;;;;;;;5091504;28;20608;-71
2023/05/01 09:12:50;;;;;;;7.25;2.42;;;;;;;;;;5092040;28;20409;-71
2023/05/01 09:15:18;;;;;;;4.75;1.80;;;;;;;;;;5091656;28;20421;-71
2023/05/01 09:17:45;;;;;;;2.50;1.90;;;;;;;;;;5091603;28;20409;-72
2023/05/01 09:20:12;;;;;;;2.28;1.75;;;;;;;;;;5090983;28;20044;-71
2023/05/01 09:22:39;;;;;;;3.25;2.20;;;;;;;;;;5091692;28;20193;-71
2023/05/01 09:25:07;;;;;;;2.50;2.00;;;;;;;;;;5090976;28;20040;-71
2023/05/01 09:27:34;;;;;;;2.90;2.03;;;;;;;;;;5091517;28;20052;-71
2023/05/01 09:30:02;;;;;;;2.05;1.85;;;;;;;;;;5091095;28;20494;-71
2023/05/01 09:32:30;;;;;;;2.40;2.03;;;;;;;;;;5091242;28;20048;-72
2023/05/01 09:35:10;;;;;;;2.90;1.90;;;;;;;;;;5090360;28;20325;-71
2023/05/01 09:37:36;;;;;;;4.63;2.30;;;;;;;;;;5091054;28;20108;-72
2023/05/01 09:40:08;;;;;;;2.85;2.30;;;;;;;;;;5091254;28;20048;-71
2023/05/01 09:42:37;;;;;;;2.75;2.38;;;;;;;;;;5091741;28;20074;-71
2023/05/01 09:45:06;;;;;;;2.90;1.90;;;;;;;;;;5090876;28;20048;-71
2023/05/01 09:47:34;;;;;;;2.75;1.88;;;;;;;;;;5090943;28;20135;-71
2023/05/01 09:50:01;;;;;;;2.20;1.98;;;;;;;;;;5090971;28;20294;-71
2023/05/01 09:52:27;;;;;;;2.58;2.20;;;;;;;;;;5090920;28;20044;-71
2023/05/01 09:55:14;;;;;;;1.98;1.77;;;;;;;;;;5091063;28;20074;-71
2023/05/01 09:57:41;;;;;;;2.55;1.88;;;;;;;;;;5090878;28;20071;-71
2023/05/01 10:00:09;;;;;;;2.58;1.80;;;;;;;;;;5091081;28;20052;-71
2023/05/01 10:02:37;;;;;;;3.38;2.00;;;;;;;;;;5090284;28;20048;-70
2023/05/01 10:05:06;;;;;;;3.60;2.05;;;;;;;;;;5090673;28;20477;-71
2023/05/01 10:07:33;;;;;;;2.22;2.00;;;;;;;;;;5090667;28;20436;-71
2023/05/01 10:10:00;;;;;;;3.92;1.90;;;;;;;;;;5090258;28;20131;-71
2023/05/01 10:12:29;;;;;;;2.20;1.98;;;;;;;;;;5090435;28;20152;-71
2023/05/01 10:14:57;;;;;;;4.75;2.20;;;;;;;;;;5090598;28;20311;-71
2023/05/01 10:17:24;;;;;;;3.83;2.00;;;;;;;;;;5090278;28;20097;-72
2023/05/01 10:19:52;;;;;;;2.13;1.92;;;;;;;;;;5090345;28;20050;-72
2023/05/01 10:22:18;;;;;;;2.97;2.10;;;;;;;;;;5090207;28;20087;-71
2023/05/01 10:24:45;;;;;;;2.60;2.15;;;;;;;;;;5090446;28;20048;-71
2023/05/01 10:27:12;;;;;;;3.03;2.30;;;;;;;;;;5090239;28;20054;-71
2023/05/01 10:29:41;;;;;;;2.20;2.00;;;;;;;;;;5090515;28;20051;-71
2023/05/01 10:32:09;;;;;;;3.80;2.15;;;;;;;;;;5090139;28;20044;-71
2023/05/01 10:34:40;;;;;;;2.13;1.90;;;;;;;;;;5090339;28;20091;-71
2023/05/01 10:37:12;;;;;;;2.58;2.08;;;;;;;;;;5090294;28;20050;-71
2023/05/01 10:39:39;;;;;;;2.58;2.10;;;;;;;;;;5090137;28;20047;-72
2023/05/01 10:42:09;;;;;;;4.45;2.40;;;;;;;;;;5090250;28;20048;-71
2023/05/01 10:44:37;;;;;;;2.17;1.98;;;;;;;;;;5091349;28;20125;-71
2023/05/01 10:47:41;;;;;;;3.25;2.00;;;;;;;;;;5094107;28;20130;-72
2023/05/01 10:50:09;;;;;;;2.95;2.00;;;;;;;;;;5094524;28;20044;-71
2023/05/01 10:53:13;;;;;;;2.05;1.90;;;;;;;;;;5094449;28;20378;-72
2023/05/01 10:55:42;;;;;;;2.38;2.17;;;;;;;;;;5111417;22;20032;-65
2023/05/01 10:58:09;;;;;;;3.67;1.95;;;;;;;;;;5113844;28;20488;-65
2023/05/01 11:00:38;;;;;;;2.45;1.98;;;;;;;;;;5114545;28;20050;-66
2023/05/01 11:03:38;;;;;;;3.67;2.15;;;;;;;;;;5114057;28;20044;-68
2023/05/01 11:06:05;;;;;;;3.58;2.10;;;;;;;;;;5114707;28;20066;-68
2023/05/01 11:08:34;;;;;;;2.30;2.08;;;;;;;;;;5113807;28;20052;-68
2023/05/01 11:11:34;;;;;;;4.35;2.10;;;;;;;;;;5114289;28;20465;-68
2023/05/01 11:14:05;;;;;;;2.72;2.08;;;;;;;;;;5113951;28;20481;-66
2023/05/01 11:16:42;;;;;;;2.50;2.30;;;;;;;;;;5114084;28;20100;-67
2023/05/01 11:19:09;;;;;;;2.30;2.00;;;;;;;;;;5113176;28;20044;-67
2023/05/01 11:21:37;;;;;;;2.30;2.10;;;;;;;;;;5113929;28;20043;-67
2023/05/01 11:24:05;;;;;;;2.40;2.20;;;;;;;;;;5113867;28;20046;-67
2023/05/01 11:26:38;;;;;;;2.42;2.22;;;;;;;;;;5113557;28;20467;-67
2023/05/01 11:29:07;;;;;;;3.47;2.00;;;;;;;;;;5113586;28;20057;-66
2023/05/01 11:31:33;;;;;;;2.80;2.22;;;;;;;;;;5113607;28;20043;-65
2023/05/01 11:34:01;;;;;;;2.40;2.20;;;;;;;;;;5113778;28;20073;-67
2023/05/01 11:36:28;;;;;;;2.42;2.15;;;;;;;;;;5113955;28;20052;-66
2023/05/01 11:38:57;;;;;;;3.08;1.95;;;;;;;;;;5113259;28;20051;-66
2023/05/01 11:41:24;;;;;;;4.07;2.03;;;;;;;;;;5114050;28;20473;-66
2023/05/01 11:43:53;;;;;;;2.70;2.17;;;;;;;;;;5113217;28;20063;-67
2023/05/01 11:46:26;;;;;;;2.22;2.03;;;;;;;;;;5113773;28;20049;-66
2023/05/01 11:48:53;;;;;;;2.47;1.95;;;;;;;;;;5113525;28;20043;-67
2023/05/01 11:51:26;;;;;;;2.28;2.08;;;;;;;;;;5114034;28;20082;-67
2023/05/01 11:54:00;;;;;;;2.15;1.88;;;;;;;;;;5113773;28;20044;-67
2023/05/01 11:56:27;;;;;;;2.60;1.80;;;;;;;;;;5112491;28;20047;-67
2023/05/01 11:58:54;;;;;;;2.00;1.80;;;;;;;;;;5113464;27;20496;-66
2023/05/01 12:01:35;;;;;;;2.50;1.83;;;;;;;;;;5113433;28;20074;-67
2023/05/01 12:04:02;;;;;;;2.30;2.10;;;;;;;;;;5113719;28;20135;-66
2023/05/01 12:06:42;;;;;;;4.70;2.35;;;;;;;;;;5112916;28;20047;-66
2023/05/01 12:09:10;;;;;;;2.20;2.00;;;;;;;;;;5113042;28;20458;-66
2023/05/01 12:11:38;;;;;;;3.22;2.00;;;;;;;;;;5112955;28;20066;-66
2023/05/01 12:14:08;;;;;;;1.98;1.80;;;;;;;;;;5113315;28;20065;-67
2023/05/01 12:16:39;;;;;;;2.63;2.00;;;;;;;;;;5112703;28;20067;-66
2023/05/01 12:19:06;;;;;;;2.53;2.00;;;;;;;;;;5112780;28;20081;-68
2023/05/01 12:21:33;;;;;;;2.97;2.25;;;;;;;;;;5112481;28;20048;-66
2023/05/01 12:24:07;;;;;;;2.90;2.00;;;;;;;;;;5112631;28;20122;-67
2023/05/01 12:26:34;;;;;;;1.90;1.80;;;;;;;;;;5112192;28;20048;-66
2023/05/01 12:29:03;;;;;;;2.35;2.10;;;;;;;;;;5112301;28;20048;-66
2023/05/01 12:31:30;;;;;;;2.35;2.00;;;;;;;;;;5112217;28;20044;-66
2023/05/01 12:33:59;;;;;;;2.50;2.30;;;;;;;;;;5112053;28;20039;-66
2023/05/01 12:36:29;;;;;;;3.15;2.03;;;;;;;;;;5112157;28;20051;-67
2023/05/01 12:39:00;;;;;;;2.58;1.98;;;;;;;;;;5112433;28;20458;-66
2023/05/01 12:41:36;;;;;;;2.20;2.00;;;;;;;;;;5112195;28;20048;-67
2023/05/01 12:44:03;;;;;;;2.05;1.80;;;;;;;;;;5112047;28;20485;-66
2023/05/01 12:46:30;;;;;;;2.53;2.13;;;;;;;;;;5111611;28;20398;-67
2023/05/01 12:48:58;;;;;;;3.25;2.30;;;;;;;;;;5112104;28;20043;-67
2023/05/01 12:51:26;;;;;;;3.05;2.00;;;;;;;;;;5111868;28;20039;-67
2023/05/01 12:53:56;;;;;;;3.33;2.40;;;;;;;;;;5111809;28;20046;-67
2023/05/01 12:56:24;;;;;;;2.50;2.30;;;;;;;;;;5111741;28;20047;-67
2023/05/01 12:58:52;;;;;;;2.42;2.17;;;;;;;;;;5111664;28;20097;-66
2023/05/01 13:01:26;;;;;;;3.15;2.30;;;;;;;;;;5112065;28;20407;-66
2023/05/01 13:03:55;;;;;;;2.55;2.35;;;;;;;;;;5111938;28;20052;-67
2023/05/01 13:06:32;;;;;;;2.95;2.15;;;;;;;;;;5111618;28;20054;-66
2023/05/01 13:09:07;;;;;;;2.00;1.75;;;;;;;;;;5111205;28;20055;-66
2023/05/01 13:11:37;;;;;;;2.80;2.25;;;;;;;;;;5111317;28;20048;-67
2023/05/01 13:14:08;;;;;;;2.38;2.00;;;;;;;;;;5111725;28;20044;-66
2023/05/01 13:16:43;;;;;;;2.45;2.17;;;;;;;;;;5111690;28;20336;-66
2023/05/01 13:19:10;;;;;;;4.10;1.92;;;;;;;;;;5111335;28;20055;-66
2023/05/01 13:21:46;;;;;;;2.10;1.90;;;;;;;;;;5111744;28;20051;-67
2023/05/01 13:24:13;;;;;;;2.03;1.83;;;;;;;;;;5111121;28;20048;-66
2023/05/01 13:26:40;;;;;;;2.53;1.98;;;;;;;;;;5111342;28;20054;-66
2023/05/01 13:29:07;;;;;;;2.38;1.90;;;;;;;;;;5110640;28;20485;-67
2023/05/01 13:31:33;;;;;;;2.67;2.28;;;;;;;;;;5111432;28;20073;-66
2023/05/01 13:34:00;;;;;;;2.95;2.20;;;;;;;;;;5110992;28;20043;-67
2023/05/01 13:36:32;;;;;;;2.28;2.10;;;;;;;;;;5110777;28;20086;-67
2023/05/01 13:39:00;;;;;;;2.67;1.75;;;;;;;;;;5110663;28;20047;-66
2023/05/01 13:41:27;;;;;;;2.17;1.98;;;;;;;;;;5111426;28;20058;-64
2023/05/01 13:43:56;;;;;;;2.25;2.05;;;;;;;;;;5111038;28;20465;-67
2023/05/01 13:46:23;;;;;;;2.38;1.80;;;;;;;;;;5110792;28;20052;-66
2023/05/01 13:48:50;;;;;;;2.25;2.00;;;;;;;;;;5110632;28;20043;-66
2023/05/01 13:51:22;;;;;;;2.40;2.20;;;;;;;;;;5111697;28;20347;-66
2023/05/01 13:53:49;;;;;;;2.50;2.30;;;;;;;;;;5111150;28;20228;-66
2023/05/01 13:56:17;;;;;;;2.10;1.90;;;;;;;;;;5111079;28;20056;-65
2023/05/01 13:58:44;;;;;;;3.03;1.80;;;;;;;;;;5110197;28;20043;-66
2023/05/01 14:01:15;;;;;;;2.13;1.80;;;;;;;;;;5111224;28;20052;-65
2023/05/01 14:03:42;;;;;;;2.45;1.85;;;;;;;;;;5110152;28;20047;-65
2023/05/01 14:06:10;;;;;;;2.10;1.90;;;;;;;;;;5111216;28;20048;-66
2023/05/01 14:08:37;;;;;;;3.67;2.13;;;;;;;;;;5110138;28;20074;-65
2023/05/01 14:11:06;;;;;;;2.42;2.17;;;;;;;;;;5110588;28;20043;-66
2023/05/01 14:13:35;;;;;;;2.40;2.00;;;;;;;;;;5109879;28;20040;-66
2023/05/01 14:16:02;;;;;;;3.25;2.10;;;;;;;;;;5109950;28;20079;-66
2023/05/01 14:18:28;;;;;;;2.80;1.90;;;;;;;;;;5109142;28;20052;-66
2023/05/01 14:20:55;;;;;;;4.70;2.83;;;;;;;;;;5109131;28;20047;-67
2023/05/01 14:23:23;;;;;;;2.78;2.35;;;;;;;;;;5110819;28;20055;-64
2023/05/01 14:25:50;;;;;;;5.05;2.70;;;;;;;;;;5109643;28;20481;-66
2023/05/01 14:28:17;;;;;;;4.18;3.30;;;;;;;;;;5109830;28;20203;-66
2023/05/01 14:30:47;;;;;;;3.08;2.17;;;;;;;;;;5109699;28;20104;-67
2023/05/01 14:33:15;;;;;;;2.35;2.10;;;;;;;;;;5110813;28;20126;-66
2023/05/01 14:35:48;;;;;;;2.15;1.90;;;;;;;;;;5109850;28;20510;-67
2023/05/01 14:38:16;;;;;;;1.73;1.63;;;;;;;;;;5109283;28;20135;-66
2023/05/01 14:40:44;;;;;;;2.75;2.05;;;;;;;;;;5110002;28;20047;-66
2023/05/01 14:43:16;;;;;;;3.80;2.10;;;;;;;;;;5109922;28;20063;-66
2023/05/01 14:45:45;;;;;;;2.13;1.92;;;;;;;;;;5109411;28;20076;-65
2023/05/01 14:48:22;;;;;;;3.58;2.00;;;;;;;;;;5109583;28;20043;-68
2023/05/01 14:50:48;;;;;;;2.88;2.05;;;;;;;;;;5109338;28;20082;-66
2023/05/01 14:53:18;;;;;;;2.60;2.30;;;;;;;;;;5109464;28;20496;-67
2023/05/01 14:55:45;;;;;;;2.63;2.42;;;;;;;;;;5070928;28;1081432;-67